Time;durP1;ratioP1;P1;durP2;ratioP2;P2;SDS_P1;SDS_P2;PMS_P1;PMS_P2;Temp;Humidity;BMP_temperature;BMP_pressure;BME280_temperature;BME280_humidity;BME280_pressure;Samples;Min_cycle;Max_cycle;Signal;HPM_P1;HPM_P2
2022/03/11 00:00:07;;;;;;;;;;;;;;;15.65;45.95;101500.41;1040614;28;630;-68
2022/03/11 00:00:57;;;;;;;;;;;;;;;15.65;46.42;101500.41;1040698;28;698;-68
2022/03/11 00:01:48;;;;;;;;;;;;;;;15.63;46.00;101504.06;1040538;28;646;-68
2022/03/11 00:02:38;;;;;;;;;;;;;;;15.63;46.24;101501.38;1040610;28;735;-68
2022/03/11 00:03:29;;;;;;;;;;;;;;;15.63;46.07;101501.38;1040700;28;717;-68
2022/03/11 00:04:19;;;;;;;;;;;;;;;15.63;46.43;101496.00;1037070;28;701;-68
2022/03/11 00:05:09;;;;;;;;;;;;;;;15.62;46.10;101499.66;1040123;28;1628;-68
2022/03/11 00:06:00;;;;;;;;;;;;;;;15.61;46.28;101497.94;1040390;28;1583;-68
2022/03/11 00:06:50;;;;;;;;;;;;;;;15.61;45.90;101494.41;1040519;28;1623;-68
2022/03/11 00:07:41;;;;;;;;;;;;;;;15.60;46.37;101492.69;1041675;28;661;-68
2022/03/11 00:08:31;;;;;;;;;;;;;;;15.61;46.57;101489.88;1040693;28;657;-68
2022/03/11 00:09:22;;;;;;;;;;;;;;;15.60;46.62;101495.38;1042043;28;696;-68
2022/03/11 00:10:12;;;;;;;;;;;;;;;15.58;45.96;101487.44;1040284;28;689;-68
2022/03/11 00:11:05;;;;;;;;;;;;;;;15.60;46.11;101495.38;1041780;28;751;-68
2022/03/11 00:11:55;;;;;;;;;;;;;;;15.60;46.26;101490.84;1041962;28;657;-68
2022/03/11 00:12:46;;;;;;;;;;;;;;;15.60;46.19;101496.22;1040795;28;742;-68
2022/03/11 00:13:36;;;;;;;;;;;;;;;15.60;46.39;101496.22;1040604;28;642;-68
2022/03/11 00:14:26;;;;;;;;;;;;;;;15.59;46.28;101497.19;1040623;28;649;-68
2022/03/11 00:15:17;;;;;;;;;;;;;;;15.58;46.27;101498.19;1040407;28;828;-67
2022/03/11 00:16:07;;;;;;;;;;;;;;;15.57;46.08;101495.63;1041610;28;855;-67
2022/03/11 00:16:58;;;;;;;;;;;;;;;15.58;46.68;101490.13;1040672;28;713;-68
2022/03/11 00:17:48;;;;;;;;;;;;;;;15.56;46.60;101489.38;1040541;28;621;-68
2022/03/11 00:18:38;;;;;;;;;;;;;;;15.56;46.42;101494.75;1040594;28;1891;-68
2022/03/11 00:19:29;;;;;;;;;;;;;;;15.57;45.83;101495.63;1041617;28;674;-68
2022/03/11 00:20:20;;;;;;;;;;;;;;;15.57;46.09;101492.94;1036789;28;1566;-68
2022/03/11 00:21:14;;;;;;;;;;;;;;;15.55;46.67;101487.69;1037546;28;685;-68
2022/03/11 00:22:05;;;;;;;;;;;;;;;15.55;46.60;101485.00;1037022;28;920;-68
2022/03/11 00:22:56;;;;;;;;;;;;;;;15.54;46.69;101485.06;1036415;28;713;-68
2022/03/11 00:23:46;;;;;;;;;;;;;;;15.55;45.86;101487.69;1037037;28;654;-68
2022/03/11 00:24:37;;;;;;;;;;;;;;;15.54;46.49;101491.31;1037164;28;634;-68
2022/03/11 00:25:29;;;;;;;;;;;;;;;15.56;46.42;101483.16;1036090;28;639;-68
2022/03/11 00:26:20;;;;;;;;;;;;;;;15.54;46.08;101483.25;1036996;28;728;-68
2022/03/11 00:27:10;;;;;;;;;;;;;;;15.56;46.64;101480.47;1036934;28;645;-68
2022/03/11 00:28:00;;;;;;;;;;;;;;;15.56;46.70;101483.16;1036573;28;697;-68
2022/03/11 00:28:51;;;;;;;;;;;;;;;15.54;45.79;101477.88;1036443;28;746;-68
2022/03/11 00:29:41;;;;;;;;;;;;;;;15.54;46.02;101483.25;1036584;28;662;-69
2022/03/11 00:30:32;;;;;;;;;;;;;;;15.54;46.43;101485.94;1036239;28;634;-68
2022/03/11 00:31:22;;;;;;;;;;;;;;;15.53;46.62;101478.84;1036388;28;642;-68
2022/03/11 00:32:13;;;;;;;;;;;;;;;15.54;46.16;101475.19;1036526;28;662;-68
2022/03/11 00:33:03;;;;;;;;;;;;;;;15.54;46.31;101483.25;1038586;28;1673;-68
2022/03/11 00:33:53;;;;;;;;;;;;;;;15.53;46.39;101478.84;1040651;28;767;-68
2022/03/11 00:34:44;;;;;;;;;;;;;;;15.52;46.45;101473.56;1040958;28;669;-68
2022/03/11 00:35:35;;;;;;;;;;;;;;;15.53;46.22;101480.66;1040543;28;586;-68
2022/03/11 00:36:25;;;;;;;;;;;;;;;15.52;46.21;101470.91;1041600;28;669;-68
2022/03/11 00:37:16;;;;;;;;;;;;;;;15.52;45.96;101481.63;1041521;28;566;-68
2022/03/11 00:38:06;;;;;;;;;;;;;;;15.51;46.05;101478.09;1040180;28;654;-68
2022/03/11 00:38:57;;;;;;;;;;;;;;;15.51;46.08;101474.56;1040551;28;654;-68
2022/03/11 00:39:47;;;;;;;;;;;;;;;15.51;46.09;101475.41;1041634;28;824;-68
2022/03/11 00:40:37;;;;;;;;;;;;;;;15.49;46.12;101480.03;1040643;28;724;-68
2022/03/11 00:41:28;;;;;;;;;;;;;;;15.49;46.52;101471.97;1040404;28;873;-67
2022/03/11 00:42:18;;;;;;;;;;;;;;;15.48;46.35;101472.94;1040424;28;697;-67
2022/03/11 00:43:09;;;;;;;;;;;;;;;15.49;45.99;101482.72;1040561;28;716;-67
2022/03/11 00:43:59;;;;;;;;;;;;;;;15.50;46.54;101483.59;1040368;28;638;-67
2022/03/11 00:44:50;;;;;;;;;;;;;;;15.49;46.33;101476.50;1040565;28;630;-67
2022/03/11 00:45:40;;;;;;;;;;;;;;;15.48;46.52;101478.31;1040365;28;656;-68
2022/03/11 00:46:30;;;;;;;;;;;;;;;15.48;46.07;101475.63;1040498;28;666;-67
2022/03/11 00:47:21;;;;;;;;;;;;;;;15.49;46.50;101471.13;1038087;28;836;-68
2022/03/11 00:48:12;;;;;;;;;;;;;;;15.48;46.41;101475.63;1037779;28;665;-67
2022/03/11 00:49:02;;;;;;;;;;;;;;;15.47;46.35;101473.06;1038049;28;645;-68
2022/03/11 00:49:52;;;;;;;;;;;;;;;15.45;46.13;101481.22;1036986;28;697;-68
2022/03/11 00:50:43;;;;;;;;;;;;;;;15.44;45.67;101468.78;1038100;28;774;-67
2022/03/11 00:51:33;;;;;;;;;;;;;;;15.45;46.47;101478.53;1036475;28;625;-68
2022/03/11 00:52:24;;;;;;;;;;;;;;;15.45;46.09;101475.88;1036978;28;585;-67
2022/03/11 00:53:14;;;;;;;;;;;;;;;15.46;46.26;101468.66;1037985;28;694;-68
2022/03/11 00:54:05;;;;;;;;;;;;;;;15.45;46.40;101469.63;1036918;28;720;-67
2022/03/11 00:54:55;;;;;;;;;;;;;;;15.45;46.35;101475.88;1041934;28;634;-68
2022/03/11 00:55:45;;;;;;;;;;;;;;;15.44;46.29;101468.78;1040669;28;646;-67
2022/03/11 00:56:36;;;;;;;;;;;;;;;15.44;46.02;101467.91;1037629;28;739;-68
2022/03/11 00:57:26;;;;;;;;;;;;;;;15.42;45.98;101465.34;1036837;28;641;-67
2022/03/11 00:58:17;;;;;;;;;;;;;;;15.43;46.33;101472.44;1037894;28;1955;-68
2022/03/11 00:59:07;;;;;;;;;;;;;;;15.43;46.15;101466.19;1036795;28;668;-68
2022/03/11 00:59:57;;;;;;;;;;;;;;;15.40;45.96;101464.63;1037998;28;751;-68
2022/03/11 01:00:48;;;;;;;;;;;;;;;15.39;45.88;101470.97;1041897;28;735;-68
2022/03/11 01:01:38;;;;;;;;;;;;;;;15.40;45.95;101471.84;1040603;28;637;-68
2022/03/11 01:02:29;;;;;;;;;;;;;;;15.39;46.00;101460.22;1036979;28;847;-68
2022/03/11 01:03:19;;;;;;;;;;;;;;;15.38;46.48;101471.94;1036846;28;729;-68
2022/03/11 01:04:10;;;;;;;;;;;;;;;15.37;45.82;101462.16;1036356;28;698;-68
2022/03/11 01:05:00;;;;;;;;;;;;;;;15.39;46.32;101470.13;1036227;28;650;-67
2022/03/11 01:05:50;;;;;;;;;;;;;;;15.38;46.29;101466.56;1036385;28;635;-67
2022/03/11 01:06:41;;;;;;;;;;;;;;;15.38;45.76;101469.25;1037349;28;712;-67
2022/03/11 01:07:32;;;;;;;;;;;;;;;15.36;45.75;101465.81;1036984;28;772;-68
2022/03/11 01:08:22;;;;;;;;;;;;;;;15.38;45.77;101460.34;1036208;28;792;-68
2022/03/11 01:09:12;;;;;;;;;;;;;;;15.37;46.24;101459.47;1036397;28;646;-67
2022/03/11 01:10:03;;;;;;;;;;;;;;;15.38;46.18;101463.88;1036102;28;630;-67
2022/03/11 01:10:53;;;;;;;;;;;;;;;15.38;46.30;101458.50;1036348;28;720;-67
2022/03/11 01:11:44;;;;;;;;;;;;;;;15.37;45.79;101456.81;1036446;28;685;-67
2022/03/11 01:12:34;;;;;;;;;;;;;;;15.37;45.90;101456.81;1036742;28;653;-68
2022/03/11 01:13:25;;;;;;;;;;;;;;;15.35;45.72;101453.38;1036837;28;681;-67
2022/03/11 01:14:15;;;;;;;;;;;;;;;15.36;45.51;101452.41;1036103;28;571;-67
2022/03/11 01:15:05;;;;;;;;;;;;;;;15.35;46.22;101450.69;1036344;28;725;-67
2022/03/11 01:15:56;;;;;;;;;;;;;;;15.35;46.32;101448.00;1036129;28;698;-68
2022/03/11 01:16:46;;;;;;;;;;;;;;;15.35;46.35;101452.50;1036834;28;622;-68
2022/03/11 01:17:37;;;;;;;;;;;;;;;15.33;46.07;101449.94;1036334;28;717;-68
2022/03/11 01:18:28;;;;;;;;;;;;;;;15.33;46.27;101455.31;1036933;28;1882;-68
2022/03/11 01:19:18;;;;;;;;;;;;;;;15.34;46.04;101448.09;1035863;28;716;-68
2022/03/11 01:20:10;;;;;;;;;;;;;;;15.33;45.99;101451.75;1036284;28;646;-68
2022/03/11 01:21:00;;;;;;;;;;;;;;;15.34;46.43;101453.47;1036382;28;733;-69
2022/03/11 01:21:51;;;;;;;;;;;;;;;15.34;45.80;101445.44;1036192;28;677;-68
2022/03/11 01:22:41;;;;;;;;;;;;;;;15.34;45.78;101450.78;1035994;28;1118;-68
2022/03/11 01:23:32;;;;;;;;;;;;;;;15.33;45.91;101446.41;1036186;28;630;-68
2022/03/11 01:24:22;;;;;;;;;;;;;;;15.32;46.16;101448.22;1036214;28;654;-68
2022/03/11 01:25:13;;;;;;;;;;;;;;;15.32;45.85;101447.38;1039861;28;1225;-68
2022/03/11 01:26:03;;;;;;;;;;;;;;;15.32;46.16;101442.84;1041403;28;650;-69
2022/03/11 01:26:53;;;;;;;;;;;;;;;15.33;46.23;101439.19;1041994;28;680;-68
2022/03/11 01:27:44;;;;;;;;;;;;;;;15.31;46.45;101441.13;1042088;28;597;-68
2022/03/11 01:28:34;;;;;;;;;;;;;;;15.31;46.21;101445.66;1041629;28;672;-68
2022/03/11 01:29:25;;;;;;;;;;;;;;;15.30;46.23;101442.09;1040563;28;673;-68
2022/03/11 01:30:16;;;;;;;;;;;;;;;15.29;46.35;101440.38;1041979;28;649;-68
2022/03/11 01:31:06;;;;;;;;;;;;;;;15.30;46.27;101442.09;1041955;28;649;-68
2022/03/11 01:31:57;;;;;;;;;;;;;;;15.29;46.07;101432.34;1041478;28;645;-68
2022/03/11 01:32:47;;;;;;;;;;;;;;;15.29;45.87;101441.25;1041946;28;724;-68
2022/03/11 01:33:38;;;;;;;;;;;;;;;15.29;46.19;101437.72;1041362;28;668;-68
2022/03/11 01:34:29;;;;;;;;;;;;;;;15.29;46.25;101437.72;1041014;28;1598;-68
2022/03/11 01:35:19;;;;;;;;;;;;;;;15.30;45.96;101442.09;1040863;28;666;-69
2022/03/11 01:36:09;;;;;;;;;;;;;;;15.28;46.39;101434.16;1040402;28;717;-69
2022/03/11 01:37:00;;;;;;;;;;;;;;;15.27;46.24;101434.28;1040210;28;602;-68
2022/03/11 01:37:50;;;;;;;;;;;;;;;15.27;46.33;101431.59;1040210;28;622;-67
2022/03/11 01:38:41;;;;;;;;;;;;;;;15.25;46.06;101431.69;1041271;28;1906;-68
2022/03/11 01:39:31;;;;;;;;;;;;;;;15.25;45.82;101423.66;1040087;28;712;-68
2022/03/11 01:40:22;;;;;;;;;;;;;;;15.26;46.31;101424.50;1041410;28;731;-68
2022/03/11 01:41:12;;;;;;;;;;;;;;;15.25;45.84;101428.16;1040740;28;721;-67
2022/03/11 01:42:02;;;;;;;;;;;;;;;15.24;46.36;101429.13;1040370;28;641;-68
2022/03/11 01:42:53;;;;;;;;;;;;;;;15.23;46.11;101424.72;1040090;28;850;-68
2022/03/11 01:43:43;;;;;;;;;;;;;;;15.22;46.37;101420.38;1040152;28;634;-68
2022/03/11 01:44:34;;;;;;;;;;;;;;;15.22;45.95;101417.69;1040299;28;736;-68
2022/03/11 01:45:24;;;;;;;;;;;;;;;15.20;45.71;101407.06;1040086;28;646;-68
2022/03/11 01:46:14;;;;;;;;;;;;;;;15.21;45.71;101418.66;1040314;28;688;-68
2022/03/11 01:47:06;;;;;;;;;;;;;;;15.21;46.30;101407.91;1040166;28;665;-68
2022/03/11 01:47:57;;;;;;;;;;;;;;;15.21;45.73;101413.28;1040359;28;661;-68
2022/03/11 01:48:47;;;;;;;;;;;;;;;15.20;45.73;101407.06;1040146;28;630;-68
2022/03/11 01:49:38;;;;;;;;;;;;;;;15.20;46.14;101414.25;1039708;28;669;-68
2022/03/11 01:50:28;;;;;;;;;;;;;;;15.19;46.13;101409.84;1039836;28;1591;-68
2022/03/11 01:51:18;;;;;;;;;;;;;;;15.19;45.97;101407.16;1040819;28;645;-68
2022/03/11 01:52:09;;;;;;;;;;;;;;;15.19;46.29;101401.78;1040752;28;712;-68
2022/03/11 01:52:59;;;;;;;;;;;;;;;15.19;45.62;101404.47;1040739;28;650;-67
2022/03/11 01:53:50;;;;;;;;;;;;;;;15.18;45.62;101405.44;1040746;28;669;-68
2022/03/11 01:54:40;;;;;;;;;;;;;;;15.17;46.25;101401.06;1040128;28;705;-68
2022/03/11 01:55:30;;;;;;;;;;;;;;;15.18;45.69;101403.63;1040216;28;739;-68
2022/03/11 01:56:21;;;;;;;;;;;;;;;15.17;45.92;101399.22;1040063;28;713;-68
2022/03/11 01:57:12;;;;;;;;;;;;;;;15.16;46.05;101400.19;1040279;28;674;-68
2022/03/11 01:58:02;;;;;;;;;;;;;;;15.16;45.76;101397.50;1040032;28;759;-68
2022/03/11 01:58:53;;;;;;;;;;;;;;;15.16;45.60;101392.13;1040353;28;740;-68
2022/03/11 01:59:44;;;;;;;;;;;;;;;15.16;46.08;101399.34;1039564;28;725;-68
2022/03/11 02:00:40;;;;;;;;;;;;;;;15.16;46.10;101388.59;1040575;28;1491;-68
2022/03/11 02:01:31;;;;;;;;;;;;;;;15.15;46.27;101400.31;1041792;28;712;-68
2022/03/11 02:02:21;;;;;;;;;;;;;;;15.14;46.49;101390.53;1041507;28;684;-68
2022/03/11 02:03:11;;;;;;;;;;;;;;;15.12;46.11;101387.09;1039744;28;697;-69
2022/03/11 02:04:02;;;;;;;;;;;;;;;15.13;45.94;101388.81;1039862;28;638;-68
2022/03/11 02:04:52;;;;;;;;;;;;;;;15.12;45.66;101390.66;1041253;28;688;-66
2022/03/11 02:05:43;;;;;;;;;;;;;;;15.13;45.75;101394.19;1040249;28;728;-68
2022/03/11 02:06:34;;;;;;;;;;;;;;;15.14;45.72;101390.53;1040153;28;677;-68
2022/03/11 02:07:24;;;;;;;;;;;;;;;15.12;46.01;101389.78;1038197;28;708;-68
2022/03/11 02:08:14;;;;;;;;;;;;;;;15.11;46.11;101380.88;1036409;28;693;-67
2022/03/11 02:09:06;;;;;;;;;;;;;;;15.11;45.66;101385.38;1036602;28;704;-68
2022/03/11 02:09:56;;;;;;;;;;;;;;;15.11;46.07;101380.03;1037165;28;705;-65
2022/03/11 02:10:47;;;;;;;;;;;;;;;15.11;45.73;101385.38;1036089;28;661;-66
2022/03/11 02:11:37;;;;;;;;;;;;;;;15.12;45.42;101381.75;1035962;28;666;-66
2022/03/11 02:12:28;;;;;;;;;;;;;;;15.11;45.81;101380.03;1037234;28;642;-66
2022/03/11 02:13:18;;;;;;;;;;;;;;;15.10;45.56;101378.31;1035926;28;709;-67
2022/03/11 02:14:08;;;;;;;;;;;;;;;15.10;45.44;101378.31;1036196;28;674;-67
2022/03/11 02:14:59;;;;;;;;;;;;;;;15.09;45.82;101376.59;1037112;28;708;-67
2022/03/11 02:15:49;;;;;;;;;;;;;;;15.08;46.03;101372.19;1035992;28;670;-66
2022/03/11 02:16:40;;;;;;;;;;;;;;;15.09;45.74;101376.59;1036039;28;737;-66
2022/03/11 02:17:33;;;;;;;;;;;;;;;15.09;45.68;101371.22;1036609;28;1128;-66
2022/03/11 02:18:23;;;;;;;;;;;;;;;15.09;45.47;101363.16;1035355;28;2000;-66
2022/03/11 02:19:13;;;;;;;;;;;;;;;15.10;45.72;101367.56;1035969;28;697;-66
2022/03/11 02:20:04;;;;;;;;;;;;;;;15.09;45.54;101371.22;1036137;28;647;-67
2022/03/11 02:20:54;;;;;;;;;;;;;;;15.08;45.43;101364.16;1036804;28;701;-67
2022/03/11 02:21:45;;;;;;;;;;;;;;;15.07;45.56;101370.47;1035781;28;761;-67
2022/03/11 02:22:36;;;;;;;;;;;;;;;15.07;45.76;101363.28;1035791;28;1154;-67
2022/03/11 02:23:26;;;;;;;;;;;;;;;15.06;45.35;101366.94;1036274;28;1562;-67
2022/03/11 02:24:17;;;;;;;;;;;;;;;15.07;45.29;101362.44;1036735;28;654;-67
2022/03/11 02:25:07;;;;;;;;;;;;;;;15.07;45.69;101367.78;1039029;28;1236;-67
2022/03/11 02:25:57;;;;;;;;;;;;;;;15.07;45.74;101362.44;1040165;28;673;-67
2022/03/11 02:26:48;;;;;;;;;;;;;;;15.05;45.40;101362.53;1040617;28;631;-67
2022/03/11 02:27:38;;;;;;;;;;;;;;;15.04;45.34;101358.19;1039983;28;689;-67
2022/03/11 02:28:29;;;;;;;;;;;;;;;15.05;45.38;101356.34;1040231;28;637;-67
2022/03/11 02:29:19;;;;;;;;;;;;;;;15.03;45.71;101356.47;1040099;28;622;-67
2022/03/11 02:30:10;;;;;;;;;;;;;;;15.04;45.32;101351.94;1040150;28;638;-67
2022/03/11 02:31:01;;;;;;;;;;;;;;;15.02;45.43;101346.69;1040599;28;779;-68
2022/03/11 02:31:51;;;;;;;;;;;;;;;15.03;45.86;101351.09;1039992;28;651;-67
2022/03/11 02:32:42;;;;;;;;;;;;;;;15.03;46.06;101350.22;1040135;28;681;-68
2022/03/11 02:33:32;;;;;;;;;;;;;;;15.03;45.69;101347.56;1039981;28;812;-68
2022/03/11 02:34:22;;;;;;;;;;;;;;;15.03;45.32;101350.22;1040289;28;653;-68
2022/03/11 02:35:13;;;;;;;;;;;;;;;15.02;45.90;101353.88;1040722;28;661;-68
2022/03/11 02:36:03;;;;;;;;;;;;;;;15.03;45.25;101347.56;1039847;28;1673;-68
2022/03/11 02:36:54;;;;;;;;;;;;;;;15.02;45.90;101343.16;1040137;28;658;-68
2022/03/11 02:37:44;;;;;;;;;;;;;;;15.04;45.83;101349.28;1039911;28;623;-68
2022/03/11 02:38:35;;;;;;;;;;;;;;;15.02;45.20;101348.53;1040837;28;1957;-68
2022/03/11 02:39:25;;;;;;;;;;;;;;;15.01;45.38;101338.75;1039689;28;622;-68
2022/03/11 02:40:16;;;;;;;;;;;;;;;15.00;45.45;101345.94;1040108;28;729;-68
2022/03/11 02:41:06;;;;;;;;;;;;;;;15.00;45.28;101342.41;1040011;28;689;-68
2022/03/11 02:41:58;;;;;;;;;;;;;;;15.00;46.02;101345.94;1040825;28;680;-68
2022/03/11 02:42:49;;;;;;;;;;;;;;;15.01;45.69;101338.75;1040832;28;716;-68
2022/03/11 02:43:41;;;;;;;;;;;;;;;15.00;45.31;101345.09;1040021;28;669;-68
2022/03/11 02:44:32;;;;;;;;;;;;;;;15.00;45.75;101337.03;1040674;28;685;-68
2022/03/11 02:45:22;;;;;;;;;;;;;;;14.99;45.67;101336.19;1040033;28;634;-68
2022/03/11 02:46:16;;;;;;;;;;;;;;;14.99;45.46;101338.00;1040078;28;704;-68
2022/03/11 02:47:06;;;;;;;;;;;;;;;14.99;45.63;101338.00;1040510;28;728;-68
2022/03/11 02:47:56;;;;;;;;;;;;;;;14.99;45.36;101343.38;1039983;28;700;-68
2022/03/11 02:48:47;;;;;;;;;;;;;;;14.97;45.54;101338.13;1040845;28;657;-68
2022/03/11 02:49:37;;;;;;;;;;;;;;;14.98;45.59;101344.34;1039693;28;709;-68
2022/03/11 02:50:28;;;;;;;;;;;;;;;14.98;46.06;101338.97;1036060;28;673;-68
2022/03/11 02:51:18;;;;;;;;;;;;;;;14.96;45.82;101341.78;1036474;28;685;-68
2022/03/11 02:52:08;;;;;;;;;;;;;;;14.98;45.45;101341.66;1035387;28;615;-69
2022/03/11 02:52:59;;;;;;;;;;;;;;;14.97;45.62;101334.59;1035572;28;663;-69
2022/03/11 02:53:49;;;;;;;;;;;;;;;14.96;45.16;101335.56;1035906;28;618;-68
2022/03/11 02:54:40;;;;;;;;;;;;;;;14.94;45.44;101336.53;1035480;28;638;-68
2022/03/11 02:55:30;;;;;;;;;;;;;;;14.95;45.23;101337.38;1035883;28;772;-67
2022/03/11 02:56:21;;;;;;;;;;;;;;;14.96;45.13;101333.72;1035392;28;646;-68
2022/03/11 02:57:11;;;;;;;;;;;;;;;14.95;45.03;101332.00;1035887;28;709;-68
2022/03/11 02:58:02;;;;;;;;;;;;;;;14.94;45.45;101330.31;1035606;28;725;-68
2022/03/11 02:58:52;;;;;;;;;;;;;;;14.94;45.88;101333.84;1035240;28;630;-68
2022/03/11 02:59:42;;;;;;;;;;;;;;;14.94;45.74;101335.66;1035455;28;685;-68
2022/03/11 03:00:33;;;;;;;;;;;;;;;14.92;45.84;101330.41;1035712;28;674;-67
2022/03/11 03:01:23;;;;;;;;;;;;;;;14.94;45.48;101341.03;1035732;28;694;-67
2022/03/11 03:02:14;;;;;;;;;;;;;;;14.93;45.34;101329.44;1035623;28;587;-67
2022/03/11 03:03:05;;;;;;;;;;;;;;;14.94;45.31;101336.53;1035237;28;693;-68
2022/03/11 03:03:55;;;;;;;;;;;;;;;14.93;45.25;101332.13;1035561;28;704;-68
2022/03/11 03:04:45;;;;;;;;;;;;;;;14.93;45.40;101323.22;1035256;28;720;-68
2022/03/11 03:05:36;;;;;;;;;;;;;;;14.91;45.41;101328.69;1035770;28;1058;-68
2022/03/11 03:06:26;;;;;;;;;;;;;;;14.91;45.74;101336.75;1036219;28;629;-68
2022/03/11 03:07:17;;;;;;;;;;;;;;;14.92;45.22;101326.88;1035986;28;696;-67
2022/03/11 03:08:07;;;;;;;;;;;;;;;14.91;45.26;101331.38;1036427;28;560;-67
2022/03/11 03:08:57;;;;;;;;;;;;;;;14.90;45.91;101326.97;1035831;28;757;-67
2022/03/11 03:09:48;;;;;;;;;;;;;;;14.90;45.68;101326.97;1036094;28;681;-67
2022/03/11 03:10:38;;;;;;;;;;;;;;;14.91;45.56;101327.84;1035870;28;653;-68
2022/03/11 03:11:29;;;;;;;;;;;;;;;14.89;45.73;101317.22;1036914;28;732;-68
2022/03/11 03:12:19;;;;;;;;;;;;;;;14.88;45.95;101320.00;1036613;28;682;-67
2022/03/11 03:13:10;;;;;;;;;;;;;;;14.88;45.75;101320.88;1037457;28;697;-67
2022/03/11 03:14:00;;;;;;;;;;;;;;;14.88;45.16;101317.34;1036557;28;658;-67
2022/03/11 03:14:50;;;;;;;;;;;;;;;14.88;45.28;101325.38;1036698;28;649;-67
2022/03/11 03:15:41;;;;;;;;;;;;;;;14.87;45.84;101312.94;1036798;28;705;-68
2022/03/11 03:16:31;;;;;;;;;;;;;;;14.88;45.85;101320.88;1036847;28;720;-68
2022/03/11 03:17:22;;;;;;;;;;;;;;;14.86;45.03;101317.47;1036694;28;701;-68
2022/03/11 03:18:12;;;;;;;;;;;;;;;14.85;45.27;101315.75;1036547;28;831;-68
2022/03/11 03:19:02;;;;;;;;;;;;;;;14.87;45.36;101315.63;1036800;28;626;-68
2022/03/11 03:19:53;;;;;;;;;;;;;;;14.86;45.97;101317.47;1036800;28;646;-68
2022/03/11 03:20:43;;;;;;;;;;;;;;;14.87;45.13;101316.47;1036644;28;658;-68
2022/03/11 03:21:34;;;;;;;;;;;;;;;14.86;45.17;101316.63;1036760;28;685;-68
2022/03/11 03:22:24;;;;;;;;;;;;;;;14.85;45.21;101318.44;1039697;28;1666;-68
2022/03/11 03:23:14;;;;;;;;;;;;;;;14.87;45.67;101318.31;1041341;28;637;-68
2022/03/11 03:24:05;;;;;;;;;;;;;;;14.86;45.65;101317.47;1040859;28;685;-68
2022/03/11 03:24:55;;;;;;;;;;;;;;;14.86;45.26;101309.44;1039379;28;1223;-68
2022/03/11 03:25:46;;;;;;;;;;;;;;;14.85;45.74;101313.09;1036689;28;706;-68
2022/03/11 03:26:36;;;;;;;;;;;;;;;14.85;45.09;101318.44;1036577;28;638;-68
2022/03/11 03:27:26;;;;;;;;;;;;;;;14.85;45.86;101309.53;1036666;28;642;-68
2022/03/11 03:28:17;;;;;;;;;;;;;;;14.83;45.83;101312.34;1036807;28;765;-68
2022/03/11 03:29:07;;;;;;;;;;;;;;;14.84;45.84;101313.19;1037278;28;634;-67
2022/03/11 03:29:58;;;;;;;;;;;;;;;14.83;45.92;101315.03;1036670;28;673;-68
2022/03/11 03:30:48;;;;;;;;;;;;;;;14.84;45.80;101306.00;1036589;28;638;-68
2022/03/11 03:31:39;;;;;;;;;;;;;;;14.83;45.88;101306.97;1037197;28;712;-67
2022/03/11 03:32:29;;;;;;;;;;;;;;;14.83;45.81;101315.03;1036809;28;634;-68
2022/03/11 03:33:19;;;;;;;;;;;;;;;14.82;45.50;101305.25;1036594;28;741;-67
2022/03/11 03:34:10;;;;;;;;;;;;;;;14.82;45.41;101309.78;1036692;28;664;-68
2022/03/11 03:35:00;;;;;;;;;;;;;;;14.81;45.61;101308.06;1036522;28;630;-68
2022/03/11 03:35:51;;;;;;;;;;;;;;;14.82;45.98;101310.63;1036694;28;689;-68
2022/03/11 03:36:41;;;;;;;;;;;;;;;14.79;45.54;101305.47;1037098;28;658;-67
2022/03/11 03:37:34;;;;;;;;;;;;;;;14.80;45.77;101312.56;1036651;28;705;-68
2022/03/11 03:38:24;;;;;;;;;;;;;;;14.80;45.88;101304.50;1037167;28;2053;-67
2022/03/11 03:39:15;;;;;;;;;;;;;;;14.81;45.28;101311.59;1036755;28;646;-71
2022/03/11 03:40:05;;;;;;;;;;;;;;;14.80;46.04;101312.56;1040264;28;1691;-67
2022/03/11 03:40:56;;;;;;;;;;;;;;;14.80;45.42;101306.34;1040653;28;643;-67
2022/03/11 03:41:46;;;;;;;;;;;;;;;14.79;45.68;101310.00;1041355;28;657;-68
2022/03/11 03:42:36;;;;;;;;;;;;;;;14.79;45.61;101312.69;1041281;28;653;-67
2022/03/11 03:43:27;;;;;;;;;;;;;;;14.78;45.53;101305.59;1040918;28;661;-67
2022/03/11 03:44:17;;;;;;;;;;;;;;;14.80;45.83;101299.16;1041425;28;713;-67
2022/03/11 03:45:08;;;;;;;;;;;;;;;14.80;45.11;101309.88;1040361;28;661;-67
2022/03/11 03:45:58;;;;;;;;;;;;;;;14.82;45.87;101307.94;1041197;28;662;-68
2022/03/11 03:46:49;;;;;;;;;;;;;;;14.79;45.42;101308.16;1040781;28;697;-68
2022/03/11 03:47:39;;;;;;;;;;;;;;;14.80;45.72;101306.34;1041463;28;756;-68
2022/03/11 03:48:29;;;;;;;;;;;;;;;14.77;45.98;101310.09;1041484;28;645;-68
2022/03/11 03:49:20;;;;;;;;;;;;;;;14.77;46.00;101309.25;1040739;28;706;-67
2022/03/11 03:50:11;;;;;;;;;;;;;;;14.77;45.48;101312.78;1040544;28;677;-68
2022/03/11 03:51:01;;;;;;;;;;;;;;;14.77;46.06;101310.09;1040605;28;733;-67
2022/03/11 03:51:52;;;;;;;;;;;;;;;14.76;45.91;101305.72;1040765;28;693;-67
2022/03/11 03:52:42;;;;;;;;;;;;;;;14.76;45.41;101311.06;1040638;28;630;-67
2022/03/11 03:53:33;;;;;;;;;;;;;;;14.77;46.05;101312.78;1040755;28;600;-68
2022/03/11 03:54:23;;;;;;;;;;;;;;;14.76;45.89;101311.06;1037165;28;653;-67
2022/03/11 03:55:14;;;;;;;;;;;;;;;14.76;45.95;101307.53;1036525;28;573;-68
2022/03/11 03:56:04;;;;;;;;;;;;;;;14.76;45.39;101307.53;1036676;28;724;-68
2022/03/11 03:56:54;;;;;;;;;;;;;;;14.75;45.14;101309.34;1036505;28;630;-68
2022/03/11 03:57:45;;;;;;;;;;;;;;;14.76;45.45;101305.72;1037690;28;669;-68
2022/03/11 03:58:35;;;;;;;;;;;;;;;14.77;45.62;101311.94;1036407;28;1890;-68
2022/03/11 03:59:26;;;;;;;;;;;;;;;14.77;45.71;101312.78;1036656;28;681;-68
2022/03/11 04:00:16;;;;;;;;;;;;;;;14.76;45.72;101310.22;1036047;28;709;-67
2022/03/11 04:01:07;;;;;;;;;;;;;;;14.74;45.79;101304.97;1037533;28;725;-67
2022/03/11 04:01:57;;;;;;;;;;;;;;;14.74;45.31;101304.97;1037659;28;658;-68
2022/03/11 04:02:47;;;;;;;;;;;;;;;14.73;45.38;101303.25;1037088;28;666;-69
2022/03/11 04:03:38;;;;;;;;;;;;;;;14.73;45.60;101305.94;1037143;28;665;-69
2022/03/11 04:04:28;;;;;;;;;;;;;;;14.74;45.72;101299.59;1037682;28;641;-68
2022/03/11 04:05:19;;;;;;;;;;;;;;;14.73;45.31;101299.72;1037611;28;676;-69
2022/03/11 04:06:09;;;;;;;;;;;;;;;14.72;45.89;101303.38;1037176;28;705;-69
2022/03/11 04:06:59;;;;;;;;;;;;;;;14.74;45.40;101302.28;1037102;28;693;-69
2022/03/11 04:07:50;;;;;;;;;;;;;;;14.74;45.26;101299.59;1037685;28;732;-69
2022/03/11 04:08:40;;;;;;;;;;;;;;;14.73;46.17;101297.88;1037375;28;872;-69
2022/03/11 04:09:31;;;;;;;;;;;;;;;14.71;45.87;101297.13;1036898;28;1584;-69
2022/03/11 04:10:21;;;;;;;;;;;;;;;14.71;45.36;101296.28;1037043;28;721;-68
2022/03/11 04:11:11;;;;;;;;;;;;;;;14.71;45.35;101294.47;1037579;28;617;-69
2022/03/11 04:12:02;;;;;;;;;;;;;;;14.70;45.95;101295.44;1036641;28;634;-69
2022/03/11 04:12:54;;;;;;;;;;;;;;;14.70;45.42;101295.44;1036432;28;702;-69
2022/03/11 04:13:45;;;;;;;;;;;;;;;14.70;45.21;101292.75;1037703;28;685;-69
2022/03/11 04:14:35;;;;;;;;;;;;;;;14.70;45.77;101300.78;1035945;28;760;-68
2022/03/11 04:15:26;;;;;;;;;;;;;;;14.70;45.22;101294.56;1037572;28;737;-69
2022/03/11 04:16:16;;;;;;;;;;;;;;;14.68;45.68;101289.34;1037539;28;695;-69
2022/03/11 04:17:07;;;;;;;;;;;;;;;14.69;45.29;101293.72;1037589;28;643;-69
2022/03/11 04:17:57;;;;;;;;;;;;;;;14.69;45.59;101288.34;1037570;28;713;-68
2022/03/11 04:18:47;;;;;;;;;;;;;;;14.69;45.90;101291.03;1036474;28;1882;-69
2022/03/11 04:19:38;;;;;;;;;;;;;;;14.69;45.35;101291.03;1037526;28;662;-69
2022/03/11 04:20:28;;;;;;;;;;;;;;;14.68;45.93;101285.81;1036980;28;686;-69
2022/03/11 04:21:19;;;;;;;;;;;;;;;14.69;46.15;101288.34;1037538;28;646;-69
2022/03/11 04:22:09;;;;;;;;;;;;;;;14.68;45.29;101292.03;1036568;28;710;-68
2022/03/11 04:22:59;;;;;;;;;;;;;;;14.68;45.10;101288.50;1035875;28;666;-68
2022/03/11 04:23:50;;;;;;;;;;;;;;;14.68;45.69;101294.72;1036485;28;634;-68
2022/03/11 04:24:40;;;;;;;;;;;;;;;14.68;45.47;101286.66;1036412;28;721;-68
2022/03/11 04:25:31;;;;;;;;;;;;;;;14.67;45.35;101289.47;1037110;28;1445;-68